Time;durP1;ratioP1;P1;durP2;ratioP2;P2;SDS_P1;SDS_P2;PMS_P1;PMS_P2;Temp;Humidity;BMP_temperature;BMP_pressure;BME280_temperature;BME280_humidity;BME280_pressure;Samples;Min_cycle;Max_cycle;Signal;HPM_P1;HPM_P2
2023/04/23 00:01:05;;;;;;;0.38;0.38;;;15.20;71.90;;;;;;4982256;28;20046;-81
2023/04/23 00:03:34;;;;;;;1.05;0.63;;;15.10;71.90;;;;;;4981558;28;20094;-80
2023/04/23 00:06:04;;;;;;;0.70;0.70;;;15.10;71.90;;;;;;4998479;28;20038;-80
2023/04/23 00:08:31;;;;;;;0.57;0.50;;;15.10;72.00;;;;;;5005392;28;20335;-81
2023/04/23 00:10:58;;;;;;;0.57;0.57;;;15.10;72.20;;;;;;5014470;28;20026;-81
2023/04/23 00:13:24;;;;;;;0.40;0.40;;;15.00;72.20;;;;;;5033073;28;20033;-80
2023/04/23 00:15:50;;;;;;;0.52;0.52;;;15.00;72.40;;;;;;5033102;28;20069;-80
2023/04/23 00:18:19;;;;;;;0.40;0.40;;;15.00;72.50;;;;;;5032228;28;20079;-79
2023/04/23 00:20:45;;;;;;;0.60;0.60;;;15.00;72.60;;;;;;5011629;28;20033;-79
2023/04/23 00:23:10;;;;;;;0.47;0.47;;;15.00;72.70;;;;;;5018931;28;20026;-80
2023/04/23 00:25:36;;;;;;;0.65;0.47;;;14.90;72.70;;;;;;5034783;28;20057;-80
2023/04/23 00:28:02;;;;;;;0.38;0.38;;;14.90;72.70;;;;;;5003588;28;20064;-80
2023/04/23 00:30:28;;;;;;;0.47;0.40;;;14.90;72.80;;;;;;5000306;28;20041;-81
2023/04/23 00:32:54;;;;;;;0.50;0.50;;;14.90;72.90;;;;;;4987594;28;20121;-80
2023/04/23 00:35:19;;;;;;;0.88;0.88;;;14.90;72.90;;;;;;5000347;28;20337;-81
2023/04/23 00:37:45;;;;;;;1.08;0.93;;;15.00;72.90;;;;;;5001160;28;20046;-81
2023/04/23 00:40:12;;;;;;;0.50;0.50;;;15.00;73.50;;;;;;5001989;28;20337;-81
2023/04/23 00:42:39;;;;;;;0.80;0.80;;;15.00;72.90;;;;;;4983990;28;20034;-82
2023/04/23 00:45:08;;;;;;;0.57;0.57;;;15.00;72.90;;;;;;4982509;28;20086;-81
2023/04/23 00:47:35;;;;;;;0.50;0.50;;;15.00;72.80;;;;;;5000552;28;20042;-81
2023/04/23 00:50:01;;;;;;;0.60;0.60;;;15.00;72.80;;;;;;4993588;28;20088;-80
2023/04/23 00:52:28;;;;;;;0.65;0.65;;;15.00;72.90;;;;;;5022191;28;20488;-81
2023/04/23 00:54:56;;;;;;;0.68;0.68;;;15.00;72.90;;;;;;4999837;28;20371;-81
2023/04/23 00:57:23;;;;;;;0.47;0.47;;;15.00;73.10;;;;;;4986280;28;20026;-80
2023/04/23 00:59:49;;;;;;;0.60;0.60;;;15.00;73.20;;;;;;4999521;28;20022;-80
2023/04/23 01:02:15;;;;;;;0.50;0.50;;;14.90;73.20;;;;;;5000439;28;20104;-81
2023/04/23 01:04:43;;;;;;;0.50;0.50;;;14.90;73.20;;;;;;4999501;28;20026;-80
2023/04/23 01:07:11;;;;;;;0.57;0.57;;;14.90;73.30;;;;;;4986804;28;20494;-81
2023/04/23 01:09:37;;;;;;;0.47;0.47;;;14.90;73.30;;;;;;5006484;28;20049;-80
2023/04/23 01:12:05;;;;;;;0.50;0.38;;;14.90;73.40;;;;;;5018507;28;20029;-81
2023/04/23 01:14:32;;;;;;;0.45;0.30;;;14.80;73.60;;;;;;4999997;28;20041;-80
2023/04/23 01:22:52;;;;;;;0.52;0.52;;;14.80;74.30;;;;;;5018290;28;20041;-80
2023/04/23 01:25:18;;;;;;;0.43;0.43;;;14.80;74.50;;;;;;5004250;28;20028;-80
2023/04/23 01:28:07;;;;;;;0.32;0.32;;;14.70;74.60;;;;;;5017911;28;20046;-79
2023/04/23 01:30:56;;;;;;;0.40;0.40;;;14.70;74.70;;;;;;5000560;28;20048;-79
2023/04/23 01:33:28;;;;;;;0.50;0.50;;;14.70;74.70;;;;;;4980791;28;20376;-80
2023/04/23 01:35:58;;;;;;;0.30;0.30;;;14.70;74.80;;;;;;4996182;28;20037;-80
2023/04/23 01:38:29;;;;;;;0.40;0.40;;;14.70;74.90;;;;;;5005352;28;20038;-80
2023/04/23 01:40:58;;;;;;;0.30;0.30;;;14.60;74.90;;;;;;5010858;28;20037;-78
2023/04/23 01:43:24;;;;;;;0.40;0.40;;;14.60;74.90;;;;;;5004737;28;20091;-80
2023/04/23 01:46:57;;;;;;;;;;;;;;;;;;;;;
2023/04/23 01:49:34;;;;;;;0.30;0.30;;;14.60;75.10;;;;;;5011651;28;20054;-80
2023/04/23 01:52:07;;;;;;;0.40;0.40;;;14.60;75.20;;;;;;5016198;28;20091;-81
2023/04/23 01:54:53;;;;;;;;;;;14.60;76.10;;;;;;5006086;28;20155;-79
2023/04/23 01:57:37;;;;;;;;;;;;;;;;;;;;;
2023/04/23 02:00:35;;;;;;;0.55;0.55;;;14.60;75.80;;;;;;5004871;28;20101;-82
2023/04/23 02:03:13;;;;;;;0.50;0.50;;;14.60;76.00;;;;;;5017200;28;20037;-79
2023/04/23 02:05:42;;;;;;;0.40;0.40;;;14.50;76.10;;;;;;4993376;28;20081;-80
2023/04/23 02:08:14;;;;;;;0.45;0.45;;;14.50;76.40;;;;;;4990648;28;20018;-80
2023/04/23 02:10:43;;;;;;;1.15;0.40;;;14.50;76.60;;;;;;5012248;28;20150;-80
2023/04/23 02:13:08;;;;;;;0.30;0.30;;;14.50;76.70;;;;;;5015849;28;20026;-81
2023/04/23 02:15:37;;;;;;;0.50;0.50;;;14.50;76.90;;;;;;5002199;28;20035;-82
2023/04/23 02:22:37;;;;;;;;;;;;;;;;;;;;;
2023/04/23 02:25:20;;;;;;;0.30;0.30;;;14.50;77.20;;;;;;5018126;28;20050;-79
2023/04/23 02:27:46;;;;;;;0.30;0.30;;;14.50;77.30;;;;;;5020764;28;20172;-81
2023/04/23 02:33:42;;;;;;;0.30;0.30;;;14.50;77.70;;;;;;5015521;28;20558;-80
2023/04/23 02:36:20;;;;;;;0.38;0.38;;;14.50;78.00;;;;;;5016395;28;20145;-79
2023/04/23 02:38:48;;;;;;;0.30;0.30;;;14.40;78.10;;;;;;4999333;28;20099;-81
2023/04/23 02:41:13;;;;;;;0.40;0.40;;;14.40;78.30;;;;;;4999499;28;20054;-81
2023/04/23 02:43:39;;;;;;;0.22;0.22;;;14.40;78.50;;;;;;5017419;28;20084;-81
2023/04/23 02:46:08;;;;;;;0.30;0.30;;;14.40;78.80;;;;;;5022750;28;20125;-80
2023/04/23 02:48:39;;;;;;;0.57;0.30;;;14.40;78.90;;;;;;5011844;28;20105;-81
2023/04/23 02:51:06;;;;;;;0.30;0.30;;;14.40;79.20;;;;;;5026455;28;20038;-81
2023/04/23 02:53:32;;;;;;;0.40;0.40;;;14.40;79.40;;;;;;4999684;28;20037;-81
2023/04/23 02:55:58;;;;;;;0.50;0.50;;;14.30;79.60;;;;;;4999697;28;20120;-82
2023/04/23 02:58:23;;;;;;;0.85;0.70;;;14.30;80.20;;;;;;5024318;28;20088;-80
2023/04/23 03:00:49;;;;;;;1.50;1.40;;;14.30;80.60;;;;;;5029788;28;20033;-81
2023/04/23 03:03:15;;;;;;;2.35;1.60;;;14.30;80.20;;;;;;5029008;28;20030;-81
2023/04/23 03:05:41;;;;;;;1.20;1.10;;;14.20;80.00;;;;;;5028979;28;20052;-81
2023/04/23 03:08:06;;;;;;;2.10;0.95;;;14.20;80.20;;;;;;5011734;28;20057;-81
2023/04/23 03:10:32;;;;;;;1.10;0.98;;;14.10;80.40;;;;;;5011181;28;20034;-81
2023/04/23 03:12:57;;;;;;;0.80;0.80;;;14.20;80.60;;;;;;5028968;28;20034;-80
2023/04/23 03:15:24;;;;;;;1.00;1.00;;;14.10;80.80;;;;;;5026203;28;20037;-80
2023/04/23 03:17:51;;;;;;;0.90;0.90;;;14.10;80.90;;;;;;5026124;28;20270;-80
2023/04/23 03:20:17;;;;;;;0.77;0.73;;;14.10;80.90;;;;;;5025859;28;20026;-81
2023/04/23 03:22:43;;;;;;;0.60;0.60;;;14.10;80.90;;;;;;5010707;28;20025;-81
2023/04/23 03:25:09;;;;;;;0.80;0.75;;;14.10;80.90;;;;;;5006635;28;20053;-80
2023/04/23 03:27:34;;;;;;;0.35;0.35;;;14.10;80.90;;;;;;5025120;28;20128;-81
2023/04/23 03:30:00;;;;;;;0.77;0.77;;;14.10;81.00;;;;;;5018366;28;20080;-81
2023/04/23 03:32:26;;;;;;;0.60;0.60;;;14.20;81.10;;;;;;5021791;28;20029;-81
2023/04/23 03:34:51;;;;;;;0.60;0.60;;;14.20;81.20;;;;;;4999715;28;20076;-80
2023/04/23 03:37:17;;;;;;;0.40;0.40;;;14.10;81.10;;;;;;5004180;28;20026;-80
2023/04/23 03:39:43;;;;;;;0.57;0.50;;;14.20;81.10;;;;;;5003972;28;20041;-81
2023/04/23 03:42:08;;;;;;;0.50;0.50;;;14.20;81.20;;;;;;5020289;28;20021;-82
2023/04/23 03:44:34;;;;;;;0.30;0.30;;;14.10;81.30;;;;;;5022212;28;20074;-81
2023/04/23 03:47:00;;;;;;;0.80;0.80;;;14.10;81.40;;;;;;5023493;28;20088;-82
2023/04/23 03:49:26;;;;;;;0.50;0.50;;;14.10;81.50;;;;;;5004289;28;20048;-83
2023/04/23 03:51:52;;;;;;;0.50;0.50;;;14.10;81.70;;;;;;5021559;28;20117;-82
2023/04/23 03:54:18;;;;;;;0.30;0.30;;;14.10;81.90;;;;;;5021855;28;20026;-82
2023/04/23 03:56:44;;;;;;;0.43;0.43;;;14.10;82.00;;;;;;5003699;28;20030;-82
2023/04/23 03:59:10;;;;;;;0.40;0.40;;;14.20;82.20;;;;;;5021574;28;20022;-82
2023/04/23 04:01:36;;;;;;;0.57;0.50;;;14.20;82.30;;;;;;5021594;28;20048;-82
2023/04/23 04:04:02;;;;;;;0.50;0.50;;;14.10;82.30;;;;;;5020571;28;20018;-81
2023/04/23 04:06:27;;;;;;;0.47;0.47;;;14.10;82.50;;;;;;5007728;28;20076;-80
2023/04/23 04:08:53;;;;;;;0.40;0.40;;;14.10;82.60;;;;;;5023106;28;20033;-80
2023/04/23 04:11:19;;;;;;;0.50;0.50;;;14.10;82.90;;;;;;5022040;28;20033;-80
2023/04/23 04:13:45;;;;;;;0.43;0.43;;;14.10;83.20;;;;;;5023156;28;20022;-81
2023/04/23 04:16:10;;;;;;;0.60;0.60;;;14.10;83.30;;;;;;5023058;28;20036;-82
2023/04/23 04:18:38;;;;;;;1.35;1.25;;;14.10;83.50;;;;;;5023516;28;20081;-80
2023/04/23 04:21:03;;;;;;;1.80;1.20;;;14.10;83.60;;;;;;5006241;28;20037;-81
2023/04/23 04:23:29;;;;;;;3.45;2.03;;;14.10;83.80;;;;;;5023040;28;20502;-82
2023/04/23 04:25:56;;;;;;;2.28;1.80;;;14.10;83.60;;;;;;5007512;28;20034;-82
2023/04/23 04:28:24;;;;;;;1.85;1.75;;;14.10;84.00;;;;;;5006451;28;20460;-81
2023/04/23 04:30:53;;;;;;;2.22;1.60;;;14.00;84.40;;;;;;5015912;28;20030;-78
2023/04/23 04:33:19;;;;;;;3.05;1.70;;;14.00;84.90;;;;;;5028337;28;20037;-77
2023/04/23 04:35:47;;;;;;;1.90;1.73;;;13.90;85.40;;;;;;5027656;28;20045;-77
2023/04/23 04:38:13;;;;;;;2.88;2.33;;;13.90;86.20;;;;;;5032225;28;20033;-77
2023/04/23 04:40:39;;;;;;;4.57;2.38;;;13.80;87.40;;;;;;5033970;28;20103;-78
2023/04/23 04:43:05;;;;;;;2.40;2.20;;;13.70;88.90;;;;;;5025837;28;20044;-78
2023/04/23 04:45:31;;;;;;;2.53;2.28;;;13.60;90.30;;;;;;5017349;28;20022;-77
2023/04/23 04:47:56;;;;;;;1.77;1.67;;;13.40;91.00;;;;;;4998515;28;20113;-78
2023/04/23 04:50:23;;;;;;;2.60;2.40;;;13.20;92.00;;;;;;5001467;28;20165;-78
2023/04/23 04:52:48;;;;;;;1.83;1.60;;;13.10;93.00;;;;;;5020866;28;20037;-78
2023/04/23 04:55:14;;;;;;;1.83;1.52;;;13.00;93.90;;;;;;5019882;28;20021;-77
2023/04/23 04:57:40;;;;;;;1.10;1.10;;;13.00;94.70;;;;;;5020202;28;20455;-78
2023/04/23 05:00:27;;;;;;;1.42;1.33;;;13.00;95.30;;;;;;5017213;28;20096;-77
2023/04/23 05:02:53;;;;;;;2.33;1.70;;;13.00;96.10;;;;;;5015798;28;20036;-78
2023/04/23 05:05:20;;;;;;;2.50;1.58;;;12.90;96.60;;;;;;5015799;28;20022;-78
2023/04/23 05:07:47;;;;;;;4.35;2.00;;;12.90;97.10;;;;;;4999054;28;20503;-79
2023/04/23 05:10:14;;;;;;;3.30;2.45;;;12.90;97.60;;;;;;5017752;28;20030;-78
2023/04/23 05:12:40;;;;;;;3.70;2.10;;;12.80;97.90;;;;;;4999283;28;20152;-78
2023/04/23 05:15:12;;;;;;;1.90;1.70;;;12.80;98.30;;;;;;4999525;28;20060;-78
2023/04/23 05:17:38;;;;;;;3.22;2.00;;;12.80;98.60;;;;;;5017376;28;20442;-80
2023/04/23 05:20:04;;;;;;;3.38;1.75;;;12.80;98.90;;;;;;5019709;28;20061;-80
2023/04/23 05:22:30;;;;;;;3.90;2.63;;;12.90;99.20;;;;;;5020254;28;20386;-81
2023/04/23 05:24:56;;;;;;;2.17;1.98;;;12.90;99.20;;;;;;5021717;28;20117;-80
2023/04/23 05:27:22;;;;;;;3.28;2.70;;;12.90;99.20;;;;;;5021918;28;20026;-80
2023/04/23 05:29:47;;;;;;;2.92;2.30;;;12.80;99.50;;;;;;5022554;28;20026;-81
2023/04/23 05:32:13;;;;;;;2.17;1.77;;;12.80;99.80;;;;;;5006251;28;20108;-81
2023/04/23 05:34:39;;;;;;;2.42;2.22;;;12.90;99.90;;;;;;5004971;28;20026;-80
2023/04/23 05:37:05;;;;;;;3.85;2.88;;;12.90;99.90;;;;;;5018605;28;20464;-79
2023/04/23 05:39:31;;;;;;;3.42;2.70;;;13.00;99.90;;;;;;5022504;28;20025;-79
2023/04/23 05:41:57;;;;;;;3.13;2.30;;;13.00;99.90;;;;;;5019088;28;20026;-81
2023/04/23 05:44:23;;;;;;;2.55;2.13;;;13.00;99.90;;;;;;5021461;28;20025;-80
2023/04/23 05:46:48;;;;;;;2.85;1.92;;;13.00;99.90;;;;;;5027147;28;20032;-79
2023/04/23 05:49:14;;;;;;;3.05;1.75;;;13.00;99.90;;;;;;5031240;28;20074;-79
2023/04/23 05:51:40;;;;;;;7.05;2.80;;;13.00;99.90;;;;;;5030439;28;20040;-79
2023/04/23 05:54:05;;;;;;;4.32;2.53;;;13.00;99.90;;;;;;5028211;28;20022;-81
2023/04/23 05:56:31;;;;;;;3.90;2.47;;;13.00;99.90;;;;;;5011097;28;20068;-80
2023/04/23 05:58:57;;;;;;;4.40;2.70;;;13.00;99.90;;;;;;5030022;28;20025;-80
2023/04/23 06:01:23;;;;;;;3.63;2.85;;;12.90;99.90;;;;;;5026638;28;20095;-81
2023/04/23 06:03:51;;;;;;;4.05;2.55;;;12.90;99.90;;;;;;5028442;28;20037;-82
2023/04/23 06:06:16;;;;;;;3.15;2.78;;;12.80;99.90;;;;;;5027676;28;20044;-81
2023/04/23 06:08:43;;;;;;;3.95;2.80;;;12.80;99.90;;;;;;5027729;28;20026;-82
2023/04/23 06:11:09;;;;;;;3.85;2.78;;;12.80;99.90;;;;;;5027194;28;20022;-81
2023/04/23 06:13:39;;;;;;;2.90;2.60;;;12.70;99.90;;;;;;5013105;28;20018;-83
2023/04/23 06:16:06;;;;;;;2.70;2.50;;;12.60;99.90;;;;;;5010495;28;20352;-83
2023/04/23 06:18:39;;;;;;;3.83;2.75;;;12.60;99.90;;;;;;5028676;28;20046;-83
2023/04/23 06:21:04;;;;;;;;;;;12.60;99.90;;;;;;5011772;28;20026;-82
2023/04/23 06:23:31;;;;;;;5.43;3.40;;;12.60;99.90;;;;;;5028924;28;19905;-84
2023/04/23 06:25:57;;;;;;;5.03;2.72;;;12.50;99.90;;;;;;5027436;28;20094;-83
2023/04/23 06:28:23;;;;;;;3.35;2.70;;;12.40;99.90;;;;;;5008416;28;20030;-84
2023/04/23 06:30:49;;;;;;;2.63;2.40;;;12.40;99.90;;;;;;5002140;28;20379;-83
2023/04/23 06:33:15;;;;;;;9.93;6.93;;;12.40;99.90;;;;;;5021083;28;20117;-81
2023/04/23 06:35:41;;;;;;;10.70;7.63;;;12.40;99.90;;;;;;5020381;28;20209;-83
2023/04/23 06:38:06;;;;;;;9.07;6.07;;;12.40;99.90;;;;;;5021744;28;20074;-83
2023/04/23 06:40:32;;;;;;;6.80;4.75;;;12.40;99.90;;;;;;5026735;28;20060;-83
2023/04/23 06:42:58;;;;;;;7.60;5.88;;;12.30;99.90;;;;;;5004984;28;20018;-82
2023/04/23 06:45:24;;;;;;;7.43;6.18;;;12.30;99.90;;;;;;5011362;28;20049;-82
2023/04/23 06:47:50;;;;;;;5.97;4.40;;;12.30;99.90;;;;;;5031267;28;20030;-83
2023/04/23 06:50:16;;;;;;;4.70;3.92;;;12.20;99.90;;;;;;5013814;28;20041;-84
2023/04/23 06:52:42;;;;;;;3.95;3.55;;;12.30;99.90;;;;;;5011598;28;20034;-83
2023/04/23 06:55:14;;;;;;;2.97;2.78;;;12.30;99.90;;;;;;5005416;28;20026;-81
2023/04/23 06:57:44;;;;;;;;;;;12.30;99.90;;;;;;5001476;28;20053;-82
2023/04/23 07:00:23;;;;;;;2.88;2.67;;;12.30;99.90;;;;;;5014919;28;19968;-81
2023/04/23 07:02:53;;;;;;;2.88;2.50;;;12.30;99.90;;;;;;5013452;28;20044;-82
2023/04/23 07:05:34;;;;;;;3.20;2.08;;;12.30;99.90;;;;;;5002856;28;20006;-82
2023/04/23 07:08:32;;;;;;;2.57;2.30;;;12.30;99.90;;;;;;5032371;28;20041;-82
2023/04/23 07:10:58;;;;;;;1.95;1.85;;;12.40;99.90;;;;;;5030833;28;20030;-81
2023/04/23 07:13:24;;;;;;;2.10;1.90;;;12.50;99.90;;;;;;5014203;28;20029;-82
2023/04/23 07:15:54;;;;;;;2.00;1.88;;;12.50;99.90;;;;;;5032443;28;20128;-82
2023/04/23 07:18:29;;;;;;;1.77;1.67;;;12.60;99.90;;;;;;5015742;28;20045;-81
2023/04/23 07:21:24;;;;;;;1.60;1.50;;;12.60;99.90;;;;;;5032112;28;20100;-81
2023/04/23 07:23:49;;;;;;;1.40;1.30;;;12.60;99.90;;;;;;5004713;28;20022;-81
2023/04/23 07:26:16;;;;;;;1.27;1.17;;;12.60;99.90;;;;;;5009967;28;20032;-81
2023/04/23 07:28:42;;;;;;;1.10;1.10;;;12.70;99.90;;;;;;5028903;28;20026;-82
2023/04/23 07:31:08;;;;;;;0.80;0.80;;;12.70;99.90;;;;;;5032297;28;20048;-79
2023/04/23 07:33:33;;;;;;;0.98;0.98;;;12.80;99.90;;;;;;5035568;28;20033;-80
2023/04/23 07:35:59;;;;;;;0.70;0.70;;;12.90;99.90;;;;;;5032009;28;20034;-78
2023/04/23 07:38:25;;;;;;;0.60;0.60;;;13.00;99.90;;;;;;5015827;28;20052;-79
2023/04/23 07:40:50;;;;;;;0.65;0.65;;;13.00;99.90;;;;;;5031548;28;20014;-80
2023/04/23 07:43:16;;;;;;;1.08;0.95;;;13.00;99.90;;;;;;5016378;28;20014;-80
2023/04/23 07:45:42;;;;;;;1.05;1.05;;;13.00;99.90;;;;;;5035411;28;20037;-80
2023/04/23 07:48:07;;;;;;;0.80;0.80;;;13.00;99.90;;;;;;5035950;28;20025;-81
2023/04/23 07:50:33;;;;;;;1.17;1.08;;;13.00;99.90;;;;;;5026397;28;20026;-79
2023/04/23 07:52:59;;;;;;;0.90;0.90;;;13.10;99.90;;;;;;5018562;28;20845;-81
2023/04/23 07:55:25;;;;;;;0.85;0.85;;;13.20;99.90;;;;;;5001225;28;20432;-80
2023/04/23 07:57:50;;;;;;;0.70;0.68;;;13.40;99.90;;;;;;5017583;28;20030;-80
2023/04/23 08:00:16;;;;;;;0.63;0.60;;;13.50;99.90;;;;;;5015979;28;20030;-79
2023/04/23 08:02:42;;;;;;;0.52;0.52;;;13.50;99.90;;;;;;5015469;28;20391;-80
2023/04/23 08:05:08;;;;;;;0.70;0.70;;;13.60;99.90;;;;;;5015617;28;20100;-80
2023/04/23 08:07:33;;;;;;;0.80;0.80;;;13.60;99.90;;;;;;4999004;28;20116;-80
2023/04/23 08:10:03;;;;;;;0.60;0.60;;;13.40;99.90;;;;;;5017533;28;20161;-82
2023/04/23 08:12:29;;;;;;;0.80;0.80;;;13.30;99.90;;;;;;5016332;28;20037;-81
2023/04/23 08:14:55;;;;;;;0.75;0.75;;;13.30;99.90;;;;;;4998789;28;20235;-79
2023/04/23 08:17:21;;;;;;;1.00;1.00;;;13.30;99.90;;;;;;4999275;28;20034;-81
2023/04/23 08:19:46;;;;;;;0.75;0.75;;;13.20;99.90;;;;;;5016636;28;20040;-80
2023/04/23 08:22:12;;;;;;;0.75;0.75;;;13.30;99.90;;;;;;4999099;28;20025;-81
2023/04/23 08:24:38;;;;;;;0.77;0.70;;;13.40;99.90;;;;;;5016261;28;20045;-81
2023/04/23 08:27:03;;;;;;;0.85;0.85;;;13.60;99.90;;;;;;5016246;28;20025;-80
2023/04/23 08:29:29;;;;;;;0.73;0.73;;;13.80;99.90;;;;;;5017130;28;20364;-81
2023/04/23 08:31:55;;;;;;;0.70;0.70;;;14.00;99.90;;;;;;5019506;28;20036;-81
2023/04/23 08:34:20;;;;;;;0.60;0.60;;;14.20;99.90;;;;;;5019478;28;20014;-81
2023/04/23 08:36:47;;;;;;;0.65;0.65;;;14.60;99.90;;;;;;5001244;28;20169;-80
2023/04/23 08:39:13;;;;;;;0.35;0.35;;;14.90;99.90;;;;;;5019695;28;20026;-82
2023/04/23 08:41:43;;;;;;;0.50;0.50;;;15.20;99.90;;;;;;5001817;28;20092;-80
2023/04/23 08:44:15;;;;;;;0.40;0.40;;;15.30;99.70;;;;;;5020440;28;20081;-82
2023/04/23 08:46:43;;;;;;;0.32;0.32;;;15.60;98.70;;;;;;5019840;28;20145;-81
2023/04/23 08:49:15;;;;;;;0.43;0.43;;;15.90;97.30;;;;;;5019421;28;20021;-80
2023/04/23 08:51:48;;;;;;;0.35;0.32;;;16.20;96.90;;;;;;5002341;28;20128;-81
2023/04/23 08:54:18;;;;;;;0.50;0.50;;;16.60;96.00;;;;;;4999847;28;20053;-81
2023/04/23 08:56:45;;;;;;;0.60;0.60;;;17.30;94.70;;;;;;5018892;28;20474;-80
2023/04/23 08:59:10;;;;;;;0.43;0.43;;;17.90;93.60;;;;;;5018979;28;20037;-80
2023/04/23 09:01:36;;;;;;;0.38;0.38;;;18.40;91.70;;;;;;5024151;28;20050;-81
2023/04/23 09:04:02;;;;;;;0.40;0.40;;;18.60;90.40;;;;;;5018994;28;20079;-82
2023/04/23 09:06:31;;;;;;;0.33;0.33;;;18.60;86.80;;;;;;5020034;28;20239;-81
2023/04/23 09:08:59;;;;;;;0.30;0.30;;;18.40;86.20;;;;;;5001515;28;20048;-81
2023/04/23 09:11:27;;;;;;;0.47;0.47;;;18.20;86.10;;;;;;5019207;28;20072;-80
2023/04/23 09:13:55;;;;;;;0.73;0.68;;;18.10;85.60;;;;;;5001635;28;20030;-81
2023/04/23 09:16:23;;;;;;;0.45;0.45;;;17.70;85.90;;;;;;5018721;28;20033;-82
2023/04/23 09:18:50;;;;;;;0.60;0.60;;;17.40;87.80;;;;;;5019187;28;20030;-80
2023/04/23 09:21:16;;;;;;;0.50;0.50;;;17.30;88.80;;;;;;5019393;28;20034;-81
2023/04/23 09:23:42;;;;;;;0.63;0.60;;;17.40;88.80;;;;;;4975111;28;1273485;-81
2023/04/23 09:26:07;;;;;;;0.70;0.57;;;17.60;88.00;;;;;;5020412;28;20026;-82
2023/04/23 09:28:37;;;;;;;0.60;0.55;;;17.90;86.70;;;;;;5019102;28;20109;-83
2023/04/23 09:31:05;;;;;;;0.60;0.60;;;18.20;86.10;;;;;;5018160;28;20024;-83
2023/04/23 09:33:34;;;;;;;0.60;0.47;;;18.40;84.20;;;;;;5021360;28;20022;-82
2023/04/23 09:40:11;;;;;;;0.50;0.50;;;18.40;83.00;;;;;;5030677;28;20033;-82
2023/04/23 09:50:09;;;;;;;0.65;0.65;;;17.90;82.90;;;;;;5033936;28;20113;-83
2023/04/23 09:53:13;;;;;;;0.47;0.47;;;17.70;83.70;;;;;;5010401;28;20034;-81
2023/04/23 09:59:55;;;;;;;0.40;0.40;;;17.90;82.40;;;;;;5025293;28;20057;-83
2023/04/23 10:03:01;;;;;;;0.50;0.50;;;18.10;81.90;;;;;;4908968;29;20272;-80
2023/04/23 10:09:45;;;;;;;0.60;0.60;;;17.90;81.80;;;;;;4922681;29;20201;-83
2023/04/23 10:16:02;;;;;;;0.80;0.80;;;18.00;82.80;;;;;;4886318;29;20325;-83
2023/04/23 10:18:57;;;;;;;;;;;17.80;82.00;;;;;;4939545;29;20476;-83
2023/04/23 10:24:40;;;;;;;1.13;0.85;;;17.40;83.80;;;;;;4933108;29;20559;-81
2023/04/23 10:27:13;;;;;;;0.55;0.55;;;17.70;84.10;;;;;;4979372;28;20050;-82
2023/04/23 10:29:40;;;;;;;0.85;0.82;;;18.00;83.60;;;;;;5018698;28;20026;-82
2023/04/23 10:32:06;;;;;;;0.63;0.63;;;18.10;82.40;;;;;;5019638;28;20017;-81
2023/04/23 10:34:32;;;;;;;0.50;0.50;;;18.20;81.80;;;;;;5018101;28;20034;-81
2023/04/23 10:37:00;;;;;;;0.60;0.60;;;18.10;82.20;;;;;;5018227;28;20069;-82
2023/04/23 10:39:31;;;;;;;1.15;1.15;;;18.00;81.90;;;;;;5018368;28;20033;-82
2023/04/23 10:41:58;;;;;;;0.60;0.60;;;18.00;82.40;;;;;;5018373;28;20501;-82
2023/04/23 10:44:35;;;;;;;0.80;0.80;;;18.20;82.70;;;;;;5017353;28;20030;-82
2023/04/23 10:47:03;;;;;;;0.60;0.60;;;18.40;81.50;;;;;;5016178;28;20041;-83
2023/04/23 10:49:30;;;;;;;1.02;0.90;;;18.70;80.10;;;;;;5017475;28;20034;-82
2023/04/23 10:52:07;;;;;;;1.30;1.20;;;18.70;79.20;;;;;;5018092;28;20022;-82
2023/04/23 10:54:35;;;;;;;0.85;0.70;;;18.30;78.80;;;;;;5015943;28;20058;-82
2023/04/23 10:57:03;;;;;;;1.15;0.88;;;18.30;81.00;;;;;;5029796;28;20035;-81
2023/04/23 10:59:31;;;;;;;0.80;0.80;;;18.70;80.50;;;;;;5035484;28;20014;-81
2023/04/23 11:02:25;;;;;;;1.25;1.17;;;19.30;78.40;;;;;;5031555;28;20038;-85
2023/04/23 11:04:56;;;;;;;1.90;1.73;;;19.60;77.00;;;;;;5009415;28;20045;-85
2023/04/23 11:07:28;;;;;;;1.50;1.25;;;19.50;74.10;;;;;;4999697;28;20029;-81
2023/04/23 11:09:58;;;;;;;0.85;0.85;;;19.10;75.10;;;;;;5016762;28;20014;-81
2023/04/23 11:12:24;;;;;;;0.90;0.90;;;19.00;77.00;;;;;;5003479;28;20049;-81
2023/04/23 11:14:51;;;;;;;0.60;0.60;;;19.20;75.90;;;;;;5017125;28;20033;-81
2023/04/23 11:17:20;;;;;;;1.67;0.70;;;19.70;76.20;;;;;;5004667;28;20033;-78
2023/04/23 11:20:12;;;;;;;0.65;0.65;;;20.40;73.80;;;;;;5018213;28;20044;-80
2023/04/23 11:22:42;;;;;;;1.20;1.05;;;20.90;71.00;;;;;;5003921;28;20026;-80
2023/04/23 11:25:10;;;;;;;0.70;0.70;;;21.10;69.50;;;;;;5017642;28;20053;-80
2023/04/23 11:27:43;;;;;;;0.70;0.70;;;21.00;68.70;;;;;;5018602;28;20069;-82
2023/04/23 11:30:15;;;;;;;0.60;0.60;;;20.90;68.40;;;;;;5033691;28;20086;-79
2023/04/23 11:32:43;;;;;;;0.60;0.60;;;20.70;68.20;;;;;;5035696;28;20415;-80
2023/04/23 11:35:11;;;;;;;0.82;0.82;;;20.70;68.60;;;;;;5017435;28;20046;-80
2023/04/23 11:37:41;;;;;;;0.75;0.75;;;21.00;67.30;;;;;;5028640;28;20431;-80
2023/04/23 11:40:12;;;;;;;0.60;0.60;;;21.30;65.90;;;;;;4999327;28;20177;-81
2023/04/23 11:42:49;;;;;;;0.80;0.80;;;21.70;65.10;;;;;;5024681;28;20030;-80
2023/04/23 11:45:22;;;;;;;0.98;0.90;;;22.10;64.00;;;;;;5016020;28;20026;-80
2023/04/23 11:47:49;;;;;;;1.40;1.30;;;21.90;62.90;;;;;;5017043;28;20018;-82
2023/04/23 11:50:26;;;;;;;1.13;1.00;;;21.30;63.80;;;;;;5000299;28;20093;-81
2023/04/23 11:52:53;;;;;;;1.13;0.80;;;20.60;66.50;;;;;;5024461;28;20041;-82
2023/04/23 11:55:19;;;;;;;0.90;0.90;;;20.60;66.00;;;;;;5008034;28;20040;-81
2023/04/23 11:58:05;;;;;;;0.57;0.57;;;20.90;64.80;;;;;;5016323;28;20036;-79
2023/04/23 12:00:31;;;;;;;0.80;0.80;;;21.10;63.70;;;;;;4978739;28;20042;-81
2023/04/23 12:03:01;;;;;;;0.80;0.68;;;21.30;62.50;;;;;;5011390;28;20120;-81
2023/04/23 12:05:37;;;;;;;0.80;0.80;;;21.80;61.80;;;;;;5018987;28;20026;-80
2023/04/23 12:08:13;;;;;;;1.00;0.90;;;22.20;61.00;;;;;;5010796;28;20053;-78
2023/04/23 12:11:00;;;;;;;1.02;1.00;;;22.40;60.40;;;;;;5021347;28;20014;-78
2023/04/23 12:13:30;;;;;;;1.20;1.10;;;22.30;60.00;;;;;;5038621;28;20025;-80
2023/04/23 12:15:58;;;;;;;1.00;1.00;;;22.00;60.90;;;;;;5038738;28;20055;-78
2023/04/23 12:18:31;;;;;;;1.55;0.80;;;21.90;60.70;;;;;;5038734;28;20029;-80
2023/04/23 12:21:07;;;;;;;0.80;0.80;;;21.50;61.60;;;;;;5039170;28;20044;-79
2023/04/23 12:23:35;;;;;;;1.63;0.70;;;21.50;62.90;;;;;;5037405;28;20041;-80
2023/04/23 12:26:05;;;;;;;0.90;0.90;;;21.70;62.20;;;;;;5016966;28;20021;-78
2023/04/23 12:28:31;;;;;;;1.08;1.00;;;21.60;61.50;;;;;;5017941;28;20029;-81
2023/04/23 12:31:01;;;;;;;0.70;0.70;;;21.40;62.00;;;;;;5021721;28;20021;-81
2023/04/23 12:33:30;;;;;;;2.08;1.58;;;21.20;62.10;;;;;;5022881;28;20022;-82
2023/04/23 12:35:57;;;;;;;0.90;0.90;;;21.00;62.80;;;;;;5034613;28;20052;-80
2023/04/23 12:38:24;;;;;;;1.10;0.90;;;20.90;62.90;;;;;;5016830;28;20038;-80
2023/04/23 12:40:51;;;;;;;1.25;1.15;;;20.90;62.90;;;;;;5005799;28;20030;-81
2023/04/23 12:43:19;;;;;;;1.17;1.08;;;20.60;62.70;;;;;;5025094;28;20037;-80
2023/04/23 12:45:45;;;;;;;1.00;1.00;;;20.10;63.40;;;;;;5024715;28;20029;-85
2023/04/23 12:48:11;;;;;;;2.38;1.77;;;19.70;65.10;;;;;;5002511;28;20439;-82
2023/04/23 12:50:38;;;;;;;1.15;1.13;;;19.70;65.20;;;;;;5020976;28;20100;-81
2023/04/23 12:53:04;;;;;;;0.98;0.98;;;20.00;65.30;;;;;;5001710;28;20033;-81
2023/04/23 12:55:29;;;;;;;1.38;1.23;;;20.30;65.60;;;;;;5019610;28;20029;-81
2023/04/23 12:57:56;;;;;;;2.70;1.50;;;21.10;63.90;;;;;;5021108;28;20041;-81
2023/04/23 13:00:22;;;;;;;1.08;1.02;;;21.30;62.00;;;;;;5013010;28;20046;-80
2023/04/23 13:02:48;;;;;;;1.35;1.25;;;21.30;61.30;;;;;;5031450;28;20142;-80
2023/04/23 13:05:14;;;;;;;0.90;0.90;;;21.20;61.70;;;;;;5017693;28;20026;-79
2023/04/23 13:07:41;;;;;;;1.08;1.08;;;21.20;62.70;;;;;;5036717;28;20068;-80
2023/04/23 13:10:07;;;;;;;0.80;0.80;;;21.20;62.00;;;;;;5018312;28;20037;-81
2023/04/23 13:12:33;;;;;;;0.80;0.80;;;21.10;62.70;;;;;;5006298;28;20116;-81
2023/04/23 13:14:59;;;;;;;0.88;0.88;;;21.10;62.50;;;;;;5026298;28;20025;-80
2023/04/23 13:17:25;;;;;;;1.02;1.00;;;21.00;62.50;;;;;;5035039;28;20081;-80
2023/04/23 13:19:52;;;;;;;2.63;1.40;;;20.90;63.20;;;;;;5009558;28;20033;-80
2023/04/23 13:22:17;;;;;;;1.10;1.00;;;20.70;62.10;;;;;;5031666;28;20029;-80
2023/04/23 13:24:43;;;;;;;0.93;0.93;;;20.30;63.40;;;;;;5003101;28;20132;-81
2023/04/23 13:27:09;;;;;;;0.98;0.98;;;20.30;64.20;;;;;;5001789;28;20055;-79
2023/04/23 13:29:35;;;;;;;0.80;0.80;;;20.40;63.70;;;;;;5007234;28;20030;-80
2023/04/23 13:32:02;;;;;;;0.90;0.90;;;20.50;63.60;;;;;;5024049;28;20097;-80
2023/04/23 13:34:27;;;;;;;1.00;1.00;;;20.80;63.20;;;;;;5002047;28;20406;-80
2023/04/23 13:36:53;;;;;;;1.60;1.50;;;20.90;62.80;;;;;;5024336;28;20049;-79
2023/04/23 13:39:20;;;;;;;1.30;1.10;;;20.70;62.50;;;;;;5011597;28;20073;-80